Time;durP1;ratioP1;P1;durP2;ratioP2;P2;SDS_P1;SDS_P2;PMS_P1;PMS_P2;Temp;Humidity;BMP_temperature;BMP_pressure;BME280_temperature;BME280_humidity;BME280_pressure;Samples;Min_cycle;Max_cycle;Signal;HPM_P1;HPM_P2
2022/09/26 00:00:30;;;;;;;4.63;4.23;;;;;;;;;;5031538;28;20197;-46
2022/09/26 00:02:56;;;;;;;5.63;4.60;;;;;;;;;;5031548;28;20627;-45
2022/09/26 00:05:22;;;;;;;5.20;4.30;;;;;;;;;;5033230;28;20734;-45
2022/09/26 00:07:48;;;;;;;7.93;4.70;;;;;;;;;;5031040;28;20224;-45
2022/09/26 00:10:14;;;;;;;5.60;4.03;;;;;;;;;;5033211;28;20718;-45
2022/09/26 00:12:41;;;;;;;6.63;4.90;;;;;;;;;;5031275;28;20271;-46
2022/09/26 00:15:07;;;;;;;8.03;4.40;;;;;;;;;;5033009;28;20201;-46
2022/09/26 00:17:33;;;;;;;5.27;4.27;;;;;;;;;;5032890;28;20256;-46
2022/09/26 00:19:59;;;;;;;5.57;3.77;;;;;;;;;;5033680;28;20205;-45
2022/09/26 00:22:25;;;;;;;7.17;3.80;;;;;;;;;;5030772;28;20268;-45
2022/09/26 00:24:51;;;;;;;5.13;3.93;;;;;;;;;;5031525;28;20706;-47
2022/09/26 00:27:19;;;;;;;5.00;3.57;;;;;;;;;;5029811;28;20232;-47
2022/09/26 00:29:46;;;;;;;5.37;3.97;;;;;;;;;;5033445;28;20205;-48
2022/09/26 00:32:12;;;;;;;7.13;3.97;;;;;;;;;;5032726;28;20251;-47
2022/09/26 00:34:38;;;;;;;4.93;3.50;;;;;;;;;;5033144;28;20197;-47
2022/09/26 00:37:04;;;;;;;7.20;3.83;;;;;;;;;;5030516;28;20342;-47
2022/09/26 00:39:33;;;;;;;8.07;3.67;;;;;;;;;;5032909;28;20220;-47
2022/09/26 00:41:59;;;;;;;5.10;3.67;;;;;;;;;;5033147;28;20647;-47
2022/09/26 00:44:39;;;;;;;4.70;3.63;;;;;;;;;;5032957;28;20268;-47
2022/09/26 00:47:11;;;;;;;4.03;3.40;;;;;;;;;;5032982;28;20659;-47
2022/09/26 00:49:39;;;;;;;4.23;3.80;;;;;;;;;;5032887;28;20209;-47
2022/09/26 00:52:07;;;;;;;4.57;3.47;;;;;;;;;;5032910;28;20690;-47
2022/09/26 00:54:33;;;;;;;4.63;3.30;;;;;;;;;;5032888;28;20198;-46
2022/09/26 00:57:03;;;;;;;6.13;3.20;;;;;;;;;;5033000;28;20255;-47
2022/09/26 00:59:30;;;;;;;3.40;3.10;;;;;;;;;;5032889;28;20212;-47
2022/09/26 01:01:58;;;;;;;6.53;3.50;;;;;;;;;;5031810;28;20255;-47
2022/09/26 01:04:27;;;;;;;5.30;3.30;;;;;;;;;;5032050;28;20683;-47
2022/09/26 01:06:53;;;;;;;4.77;3.43;;;;;;;;;;5032398;28;20791;-47
2022/09/26 01:09:19;;;;;;;4.07;3.20;;;;;;;;;;5031642;28;20674;-47
2022/09/26 01:11:47;;;;;;;5.03;3.20;;;;;;;;;;5030950;28;20201;-47
2022/09/26 01:14:14;;;;;;;6.30;3.80;;;;;;;;;;5031902;28;20276;-47
2022/09/26 01:16:43;;;;;;;5.63;3.20;;;;;;;;;;5032359;28;20212;-47
2022/09/26 01:19:24;;;;;;;4.30;3.43;;;;;;;;;;5032195;28;20197;-47
2022/09/26 01:22:03;;;;;;;5.80;4.00;;;;;;;;;;5032103;28;20200;-47
2022/09/26 01:24:44;;;;;;;5.33;4.03;;;;;;;;;;5032046;28;20253;-47
2022/09/26 01:27:34;;;;;;;5.03;3.60;;;;;;;;;;5032018;28;20200;-47
2022/09/26 01:30:12;;;;;;;8.67;4.00;;;;;;;;;;5028044;28;20204;-47
2022/09/26 01:32:59;;;;;;;6.27;4.13;;;;;;;;;;5032006;28;20197;-47
2022/09/26 01:35:35;;;;;;;6.57;3.90;;;;;;;;;;5026913;28;20197;-47
2022/09/26 01:38:07;;;;;;;5.80;3.33;;;;;;;;;;5032205;28;20279;-47
2022/09/26 01:40:39;;;;;;;5.00;3.37;;;;;;;;;;5030242;28;20689;-48
2022/09/26 01:43:08;;;;;;;6.07;3.93;;;;;;;;;;5031669;28;20204;-48
2022/09/26 01:45:39;;;;;;;7.80;4.00;;;;;;;;;;5029806;28;20259;-48
2022/09/26 01:48:07;;;;;;;8.07;4.57;;;;;;;;;;5031965;28;20203;-48
2022/09/26 01:50:36;;;;;;;5.40;4.17;;;;;;;;;;5029370;28;20200;-48
2022/09/26 01:53:05;;;;;;;5.70;3.73;;;;;;;;;;5031535;28;20200;-48
2022/09/26 01:55:35;;;;;;;4.00;3.60;;;;;;;;;;5029565;28;20204;-47
2022/09/26 01:58:04;;;;;;;6.20;4.13;;;;;;;;;;5031567;28;20659;-47
2022/09/26 02:00:30;;;;;;;5.80;3.73;;;;;;;;;;5031514;28;20288;-47
2022/09/26 02:02:58;;;;;;;5.33;3.90;;;;;;;;;;5031700;28;20201;-47
2022/09/26 02:05:28;;;;;;;5.23;4.40;;;;;;;;;;5031604;28;20225;-48
2022/09/26 02:07:57;;;;;;;6.17;4.20;;;;;;;;;;5031721;28;20236;-47
2022/09/26 02:10:25;;;;;;;4.37;3.97;;;;;;;;;;5031605;28;20251;-47
2022/09/26 02:12:53;;;;;;;7.60;3.83;;;;;;;;;;5029411;28;20263;-48
2022/09/26 02:15:20;;;;;;;6.40;3.90;;;;;;;;;;5031102;28;20177;-47
2022/09/26 02:17:48;;;;;;;5.00;4.07;;;;;;;;;;5031221;28;20217;-46
2022/09/26 02:20:18;;;;;;;4.13;3.60;;;;;;;;;;5027682;28;20227;-47
2022/09/26 02:22:45;;;;;;;6.93;3.87;;;;;;;;;;5030950;28;20197;-47
2022/09/26 02:25:11;;;;;;;6.20;4.17;;;;;;;;;;5031125;28;20271;-47
2022/09/26 02:27:37;;;;;;;8.73;3.80;;;;;;;;;;5030960;28;20217;-47
2022/09/26 02:30:04;;;;;;;5.70;4.23;;;;;;;;;;5030712;28;20299;-47
2022/09/26 02:32:31;;;;;;;7.57;3.80;;;;;;;;;;5028044;28;20299;-47
2022/09/26 02:34:58;;;;;;;4.87;4.00;;;;;;;;;;5028949;28;20621;-47
2022/09/26 02:37:27;;;;;;;8.03;4.40;;;;;;;;;;5029713;28;20263;-46
2022/09/26 02:39:54;;;;;;;5.17;4.67;;;;;;;;;;5029251;28;20213;-53
2022/09/26 02:42:24;;;;;;;4.43;4.03;;;;;;;;;;5030705;28;20690;-46
2022/09/26 02:45:00;;;;;;;6.47;3.80;;;;;;;;;;5030914;28;20224;-47
2022/09/26 02:47:33;;;;;;;7.93;4.10;;;;;;;;;;5030977;28;20204;-47
2022/09/26 02:50:08;;;;;;;4.40;3.60;;;;;;;;;;5030184;28;20252;-47
2022/09/26 02:52:43;;;;;;;5.13;3.83;;;;;;;;;;5030865;28;20259;-47
2022/09/26 02:55:15;;;;;;;6.43;4.63;;;;;;;;;;5030804;28;20718;-47
2022/09/26 02:57:45;;;;;;;3.87;3.43;;;;;;;;;;5030511;28;20204;-47
2022/09/26 03:00:15;;;;;;;5.93;4.10;;;;;;;;;;5030656;28;20296;-47
2022/09/26 03:02:45;;;;;;;5.63;4.00;;;;;;;;;;5030632;28;20200;-47
2022/09/26 03:05:13;;;;;;;4.30;3.63;;;;;;;;;;5030533;28;20243;-47
2022/09/26 03:07:42;;;;;;;7.77;4.10;;;;;;;;;;5030489;28;20592;-47
2022/09/26 03:10:09;;;;;;;6.60;3.77;;;;;;;;;;5027799;28;20794;-47
2022/09/26 03:12:36;;;;;;;4.27;3.60;;;;;;;;;;5029190;28;20201;-47
2022/09/26 03:15:03;;;;;;;9.63;3.87;;;;;;;;;;5029975;28;20213;-47
2022/09/26 03:17:30;;;;;;;7.50;3.97;;;;;;;;;;5028507;28;20201;-47
2022/09/26 03:19:57;;;;;;;9.10;4.00;;;;;;;;;;5028875;28;20201;-47
2022/09/26 03:22:24;;;;;;;7.27;3.87;;;;;;;;;;5030399;28;20200;-47
2022/09/26 03:24:51;;;;;;;4.90;3.73;;;;;;;;;;5030221;28;20245;-47
2022/09/26 03:27:18;;;;;;;5.20;3.77;;;;;;;;;;5028420;28;20669;-47
2022/09/26 03:29:44;;;;;;;7.97;4.00;;;;;;;;;;5028593;28;20617;-48
2022/09/26 03:32:10;;;;;;;6.50;4.13;;;;;;;;;;5030089;28;20237;-47
2022/09/26 03:34:38;;;;;;;5.70;3.63;;;;;;;;;;5027724;28;20264;-48
2022/09/26 03:37:04;;;;;;;3.93;3.60;;;;;;;;;;5029575;28;20593;-47
2022/09/26 03:39:30;;;;;;;6.63;3.63;;;;;;;;;;5030049;28;20256;-47
2022/09/26 03:41:58;;;;;;;6.03;3.90;;;;;;;;;;5029730;28;20201;-47
2022/09/26 03:44:24;;;;;;;4.90;3.80;;;;;;;;;;5030350;28;20239;-47
2022/09/26 03:46:50;;;;;;;5.37;4.00;;;;;;;;;;5033403;28;20205;-46
2022/09/26 03:49:16;;;;;;;7.07;3.93;;;;;;;;;;5032091;28;20197;-47
2022/09/26 03:51:43;;;;;;;6.77;4.27;;;;;;;;;;5032033;28;20208;-47
2022/09/26 03:54:10;;;;;;;6.47;4.27;;;;;;;;;;5032283;28;20224;-47
2022/09/26 03:56:36;;;;;;;6.20;4.00;;;;;;;;;;5033322;28;20197;-47
2022/09/26 03:59:04;;;;;;;6.53;4.00;;;;;;;;;;5033764;28;20252;-48
2022/09/26 04:01:30;;;;;;;5.93;3.97;;;;;;;;;;5031663;28;20220;-48
2022/09/26 04:03:56;;;;;;;8.53;4.70;;;;;;;;;;5033400;28;20220;-47
2022/09/26 04:06:23;;;;;;;4.77;4.33;;;;;;;;;;5031738;28;20293;-48
2022/09/26 04:08:50;;;;;;;5.67;4.87;;;;;;;;;;5031696;28;20225;-48
2022/09/26 04:11:18;;;;;;;5.60;4.97;;;;;;;;;;5033091;28;20193;-47
2022/09/26 04:13:44;;;;;;;5.90;5.00;;;;;;;;;;5033275;28;20636;-48
2022/09/26 04:16:11;;;;;;;5.67;4.80;;;;;;;;;;5030702;28;20220;-47
2022/09/26 04:18:38;;;;;;;7.20;5.30;;;;;;;;;;5032394;28;20197;-48
2022/09/26 04:21:05;;;;;;;9.37;4.70;;;;;;;;;;5033510;28;20244;-48
2022/09/26 04:23:32;;;;;;;11.60;5.60;;;;;;;;;;5033177;28;20216;-48
2022/09/26 04:26:02;;;;;;;8.03;5.60;;;;;;;;;;5033236;28;20200;-47
2022/09/26 04:28:29;;;;;;;6.57;5.20;;;;;;;;;;5028393;28;20197;-47
2022/09/26 04:30:57;;;;;;;6.93;5.90;;;;;;;;;;5031313;28;20243;-47
2022/09/26 04:33:24;;;;;;;8.47;6.33;;;;;;;;;;5029402;28;20578;-47
2022/09/26 04:35:50;;;;;;;6.13;5.43;;;;;;;;;;5031223;28;20207;-47
2022/09/26 04:38:17;;;;;;;10.80;6.60;;;;;;;;;;5031805;28;20201;-47
2022/09/26 04:40:43;;;;;;;8.20;6.20;;;;;;;;;;5029817;28;20200;-47
2022/09/26 04:43:09;;;;;;;7.37;5.90;;;;;;;;;;5032210;28;20205;-47
2022/09/26 04:45:35;;;;;;;10.50;6.07;;;;;;;;;;5030402;28;20207;-47
2022/09/26 04:48:01;;;;;;;7.70;6.57;;;;;;;;;;5030112;28;20229;-47
2022/09/26 04:50:29;;;;;;;7.73;6.50;;;;;;;;;;5030960;28;20235;-47
2022/09/26 04:52:55;;;;;;;9.30;6.47;;;;;;;;;;5030750;28;20283;-47
2022/09/26 04:55:21;;;;;;;9.13;6.90;;;;;;;;;;5031666;28;20720;-47
2022/09/26 04:57:48;;;;;;;11.67;6.93;;;;;;;;;;5030673;28;20208;-46
2022/09/26 05:00:16;;;;;;;7.53;6.23;;;;;;;;;;5032389;28;20228;-47
2022/09/26 05:02:44;;;;;;;11.10;6.97;;;;;;;;;;5030501;28;20259;-47
2022/09/26 05:05:11;;;;;;;9.17;7.13;;;;;;;;;;5032063;28;20638;-47
2022/09/26 05:07:40;;;;;;;8.30;7.07;;;;;;;;;;5030452;28;20240;-47
2022/09/26 05:10:09;;;;;;;9.20;7.60;;;;;;;;;;5032423;28;20218;-47
2022/09/26 05:12:37;;;;;;;9.57;7.67;;;;;;;;;;5031427;28;20208;-47
2022/09/26 05:15:07;;;;;;;8.90;7.80;;;;;;;;;;5031966;28;20221;-46
2022/09/26 05:17:33;;;;;;;10.50;7.90;;;;;;;;;;5030831;28;20264;-47
2022/09/26 05:19:59;;;;;;;10.20;8.27;;;;;;;;;;5031880;28;20240;-47
2022/09/26 05:22:28;;;;;;;10.87;7.90;;;;;;;;;;5032168;28;20197;-47
2022/09/26 05:27:41;;;;;;;11.17;8.27;;;;;;;;;;5032259;28;20290;-46
2022/09/26 05:30:07;;;;;;;9.13;8.23;;;;;;;;;;5031616;28;20583;-46
2022/09/26 05:32:33;;;;;;;9.07;8.20;;;;;;;;;;5031789;28;20220;-47
2022/09/26 05:34:59;;;;;;;9.40;8.37;;;;;;;;;;5031438;28;20531;-46
2022/09/26 05:37:25;;;;;;;9.93;8.07;;;;;;;;;;5031188;28;20192;-46
2022/09/26 05:42:39;;;;;;;9.53;7.93;;;;;;;;;;5031718;28;20199;-47
2022/09/26 05:45:05;;;;;;;9.10;7.63;;;;;;;;;;5031614;28;20232;-46
2022/09/26 05:47:34;;;;;;;13.33;8.50;;;;;;;;;;5031529;28;20201;-47
2022/09/26 05:50:01;;;;;;;10.27;8.13;;;;;;;;;;5031970;28;20197;-47
2022/09/26 05:52:27;;;;;;;12.03;8.33;;;;;;;;;;5031524;28;20778;-46
2022/09/26 05:54:53;;;;;;;10.87;7.53;;;;;;;;;;5031686;28;20224;-46
2022/09/26 05:57:19;;;;;;;11.13;9.23;;;;;;;;;;5031645;28;20228;-46
2022/09/26 05:59:47;;;;;;;9.87;8.13;;;;;;;;;;5031456;28;20197;-47
2022/09/26 06:02:13;;;;;;;11.17;8.00;;;;;;;;;;5031778;28;20209;-47
2022/09/26 06:04:39;;;;;;;11.50;7.87;;;;;;;;;;5031510;28;20232;-48
2022/09/26 06:07:05;;;;;;;12.20;7.57;;;;;;;;;;5031209;28;20942;-48
2022/09/26 06:09:31;;;;;;;9.80;8.00;;;;;;;;;;5030174;28;20197;-48
2022/09/26 06:11:57;;;;;;;11.13;8.17;;;;;;;;;;5030526;28;20197;-47
2022/09/26 06:14:25;;;;;;;9.00;7.23;;;;;;;;;;5029863;28;20287;-47
2022/09/26 06:16:52;;;;;;;9.00;7.67;;;;;;;;;;5031472;28;20193;-46
2022/09/26 06:19:18;;;;;;;7.97;7.10;;;;;;;;;;5031550;28;20207;-47
2022/09/26 06:21:44;;;;;;;10.67;7.37;;;;;;;;;;5031517;28;20671;-47
2022/09/26 06:24:11;;;;;;;8.77;7.60;;;;;;;;;;5029943;28;20228;-47
2022/09/26 06:26:37;;;;;;;10.00;8.43;;;;;;;;;;5029747;28;20275;-46
2022/09/26 06:29:04;;;;;;;9.13;7.50;;;;;;;;;;5031613;28;20228;-48
2022/09/26 06:31:30;;;;;;;9.00;6.60;;;;;;;;;;5031307;28;20235;-48
2022/09/26 06:33:57;;;;;;;8.70;6.50;;;;;;;;;;5028925;28;20212;-49
2022/09/26 06:36:23;;;;;;;7.90;6.70;;;;;;;;;;5028914;28;20238;-47
2022/09/26 06:38:50;;;;;;;8.17;6.10;;;;;;;;;;5030229;28;20197;-47
2022/09/26 06:41:16;;;;;;;7.67;6.37;;;;;;;;;;5028306;28;20197;-47
2022/09/26 06:43:43;;;;;;;7.00;6.33;;;;;;;;;;5030534;28;20221;-47
2022/09/26 06:46:09;;;;;;;9.07;6.57;;;;;;;;;;5030487;28;20252;-48
2022/09/26 06:48:35;;;;;;;8.70;6.60;;;;;;;;;;5031056;28;20201;-47
2022/09/26 06:51:03;;;;;;;8.07;6.07;;;;;;;;;;5030835;28;20613;-48
2022/09/26 06:53:30;;;;;;;9.60;7.00;;;;;;;;;;5030820;28;20264;-47
2022/09/26 06:55:57;;;;;;;7.60;6.23;;;;;;;;;;5031054;28;20540;-47
2022/09/26 06:58:23;;;;;;;9.07;5.80;;;;;;;;;;5030129;28;20236;-46
2022/09/26 07:00:49;;;;;;;7.97;5.93;;;;;;;;;;5031103;28;20211;-46
2022/09/26 07:03:15;;;;;;;10.40;5.37;;;;;;;;;;5031354;28;20276;-47
2022/09/26 07:05:44;;;;;;;7.37;5.60;;;;;;;;;;5029054;28;20698;-47
2022/09/26 07:08:11;;;;;;;6.80;5.40;;;;;;;;;;5029935;28;20231;-47
2022/09/26 07:10:37;;;;;;;6.50;4.90;;;;;;;;;;5030742;28;20208;-47
2022/09/26 07:13:04;;;;;;;8.07;5.60;;;;;;;;;;5030633;28;20648;-47
2022/09/26 07:15:32;;;;;;;7.57;5.07;;;;;;;;;;5031173;28;20209;-47
2022/09/26 07:18:01;;;;;;;5.90;4.67;;;;;;;;;;5029168;28;20256;-47
2022/09/26 07:20:27;;;;;;;6.77;4.83;;;;;;;;;;5034741;28;20208;-47
2022/09/26 07:22:53;;;;;;;5.70;4.27;;;;;;;;;;5034472;28;20671;-47
2022/09/26 07:25:21;;;;;;;7.03;4.80;;;;;;;;;;5032967;28;20236;-47
2022/09/26 07:27:49;;;;;;;6.10;4.37;;;;;;;;;;5034224;28;20227;-47
2022/09/26 07:30:15;;;;;;;7.87;4.87;;;;;;;;;;5033723;28;20240;-48
2022/09/26 07:32:46;;;;;;;5.00;4.43;;;;;;;;;;5032320;28;20284;-47
2022/09/26 07:35:13;;;;;;;8.60;5.03;;;;;;;;;;5032796;28;20201;-47
2022/09/26 07:37:39;;;;;;;6.17;4.60;;;;;;;;;;5032445;28;20201;-47
2022/09/26 07:40:05;;;;;;;6.97;4.67;;;;;;;;;;5034115;28;20569;-47
2022/09/26 07:42:33;;;;;;;5.90;4.90;;;;;;;;;;5034275;28;20287;-47
2022/09/26 07:44:59;;;;;;;6.53;4.77;;;;;;;;;;5034208;28;20458;-47
2022/09/26 07:50:15;;;;;;;6.87;5.50;;;;;;;;;;5033870;28;20197;-48
2022/09/26 07:52:42;;;;;;;7.60;5.27;;;;;;;;;;5034138;28;20685;-49
2022/09/26 07:55:09;;;;;;;8.73;5.30;;;;;;;;;;5034205;28;20188;-47
2022/09/26 07:57:36;;;;;;;7.23;5.20;;;;;;;;;;5034053;28;20197;-47
2022/09/26 08:00:03;;;;;;;5.77;4.80;;;;;;;;;;5032537;28;20224;-47
2022/09/26 08:02:33;;;;;;;6.73;5.30;;;;;;;;;;5033798;28;20280;-47
2022/09/26 08:04:59;;;;;;;5.37;4.67;;;;;;;;;;5049832;28;20219;-47
2022/09/26 08:07:25;;;;;;;7.03;4.77;;;;;;;;;;5053587;28;20219;-47
2022/09/26 08:09:52;;;;;;;8.27;5.20;;;;;;;;;;5051411;28;20197;-47
2022/09/26 08:12:18;;;;;;;9.50;4.37;;;;;;;;;;5053209;28;20185;-47
2022/09/26 08:14:48;;;;;;;9.97;5.03;;;;;;;;;;5053030;28;20258;-47
2022/09/26 08:17:14;;;;;;;5.40;4.77;;;;;;;;;;5053266;28;20234;-47
2022/09/26 08:19:40;;;;;;;7.80;4.77;;;;;;;;;;5053506;28;20200;-47
2022/09/26 08:22:07;;;;;;;6.77;4.67;;;;;;;;;;5052954;28;20192;-47
2022/09/26 08:24:33;;;;;;;6.67;4.90;;;;;;;;;;5052954;28;20236;-47
2022/09/26 08:26:59;;;;;;;11.37;5.03;;;;;;;;;;5051672;28;20212;-47
2022/09/26 08:29:25;;;;;;;13.03;4.97;;;;;;;;;;5052492;28;20204;-47
2022/09/26 08:31:53;;;;;;;7.17;4.80;;;;;;;;;;5051453;28;20298;-47
2022/09/26 08:34:20;;;;;;;7.53;4.73;;;;;;;;;;5050905;28;20678;-47
2022/09/26 08:36:50;;;;;;;8.83;5.33;;;;;;;;;;5051029;28;20245;-47
2022/09/26 08:39:16;;;;;;;5.07;4.40;;;;;;;;;;5052539;28;20200;-47
2022/09/26 08:41:49;;;;;;;7.47;4.60;;;;;;;;;;5052788;28;20222;-47
2022/09/26 08:44:28;;;;;;;7.87;4.80;;;;;;;;;;5052769;28;20291;-47
2022/09/26 08:47:01;;;;;;;7.00;4.53;;;;;;;;;;5052877;28;20230;-47
2022/09/26 08:49:47;;;;;;;7.87;4.57;;;;;;;;;;5052811;28;20226;-47
2022/09/26 08:52:20;;;;;;;6.63;4.33;;;;;;;;;;5051000;28;20196;-47
2022/09/26 08:54:47;;;;;;;8.00;4.10;;;;;;;;;;5052172;28;20872;-47
2022/09/26 08:57:18;;;;;;;7.80;4.87;;;;;;;;;;5050667;28;20283;-48
2022/09/26 08:59:45;;;;;;;7.17;4.40;;;;;;;;;;5052346;28;20311;-48
2022/09/26 09:02:17;;;;;;;8.40;4.37;;;;;;;;;;5053177;28;20207;-48
2022/09/26 09:04:46;;;;;;;4.57;3.97;;;;;;;;;;5050895;28;20232;-48
2022/09/26 09:07:17;;;;;;;5.00;3.90;;;;;;;;;;5052703;28;20220;-47
2022/09/26 09:09:43;;;;;;;4.93;3.60;;;;;;;;;;5052093;28;20842;-47
2022/09/26 09:12:12;;;;;;;6.30;3.60;;;;;;;;;;5051942;28;20256;-48
2022/09/26 09:14:49;;;;;;;9.33;4.17;;;;;;;;;;5050461;28;20351;-47
2022/09/26 09:17:22;;;;;;;6.33;3.77;;;;;;;;;;5051103;28;20192;-48
2022/09/26 09:19:52;;;;;;;4.67;3.73;;;;;;;;;;5051934;28;20196;-46
2022/09/26 09:22:28;;;;;;;8.40;3.40;;;;;;;;;;5051948;28;20655;-46
2022/09/26 09:24:58;;;;;;;7.83;3.33;;;;;;;;;;5052029;28;20259;-49
2022/09/26 09:27:31;;;;;;;7.83;3.40;;;;;;;;;;5052224;28;20200;-48
2022/09/26 09:30:02;;;;;;;4.53;3.43;;;;;;;;;;5051761;28;20196;-48
2022/09/26 09:32:31;;;;;;;5.93;3.47;;;;;;;;;;5049788;28;20208;-48
2022/09/26 09:34:58;;;;;;;8.93;3.73;;;;;;;;;;5051728;28;20204;-47
2022/09/26 09:37:26;;;;;;;3.50;3.20;;;;;;;;;;5052152;28;20196;-48
2022/09/26 09:39:52;;;;;;;7.20;3.70;;;;;;;;;;5049797;28;20292;-48
2022/09/26 09:42:22;;;;;;;4.60;3.53;;;;;;;;;;5050953;28;20290;-46
2022/09/26 09:44:52;;;;;;;3.97;3.53;;;;;;;;;;5049603;28;20265;-46
2022/09/26 09:47:18;;;;;;;5.97;3.47;;;;;;;;;;5050826;28;20223;-48
2022/09/26 09:49:46;;;;;;;5.17;3.50;;;;;;;;;;5051399;28;20196;-46
2022/09/26 09:52:19;;;;;;;8.03;3.80;;;;;;;;;;5051389;28;20200;-48
2022/09/26 09:54:58;;;;;;;5.87;3.50;;;;;;;;;;5050866;28;20192;-48
2022/09/26 09:57:39;;;;;;;4.80;3.80;;;;;;;;;;5051258;28;20804;-48
2022/09/26 10:00:11;;;;;;;6.50;3.40;;;;;;;;;;5051400;28;20254;-48
2022/09/26 10:02:42;;;;;;;6.30;3.43;;;;;;;;;;5051345;28;20220;-48
2022/09/26 10:05:21;;;;;;;5.30;3.47;;;;;;;;;;5051308;28;20231;-47
2022/09/26 10:07:48;;;;;;;3.50;3.20;;;;;;;;;;5051021;28;20224;-48
2022/09/26 10:10:19;;;;;;;8.23;3.23;;;;;;;;;;5050469;28;20204;-48
2022/09/26 10:12:46;;;;;;;5.60;3.20;;;;;;;;;;5049520;28;20196;-48
2022/09/26 10:15:18;;;;;;;5.43;3.00;;;;;;;;;;5050828;28;20237;-48
2022/09/26 10:17:59;;;;;;;4.70;2.87;;;;;;;;;;5049299;28;20203;-47
2022/09/26 10:20:34;;;;;;;4.73;3.10;;;;;;;;;;5049538;28;20192;-47
2022/09/26 10:23:05;;;;;;;4.87;2.73;;;;;;;;;;5051351;28;20207;-47
2022/09/26 10:25:31;;;;;;;6.47;3.20;;;;;;;;;;5049492;28;20220;-47
2022/09/26 10:27:59;;;;;;;4.23;3.13;;;;;;;;;;5049660;28;20200;-48
2022/09/26 10:30:29;;;;;;;4.80;3.07;;;;;;;;;;5050703;28;20262;-47
2022/09/26 10:32:57;;;;;;;3.80;2.73;;;;;;;;;;5051150;28;20206;-48
2022/09/26 10:35:24;;;;;;;7.50;2.93;;;;;;;;;;5050647;28;20196;-48
2022/09/26 10:37:59;;;;;;;4.80;2.50;;;;;;;;;;5042821;28;20812;-47
2022/09/26 10:40:45;;;;;;;5.10;2.97;;;;;;;;;;5048682;28;20191;-47
2022/09/26 10:43:21;;;;;;;4.77;2.50;;;;;;;;;;5048887;28;20192;-47
2022/09/26 10:45:47;;;;;;;4.77;2.53;;;;;;;;;;5050260;28;20231;-47
2022/09/26 10:48:20;;;;;;;4.83;2.70;;;;;;;;;;5047947;28;20278;-47
2022/09/26 10:50:49;;;;;;;3.80;2.90;;;;;;;;;;5048352;28;20217;-47
2022/09/26 10:53:18;;;;;;;4.40;2.60;;;;;;;;;;5051176;28;20196;-47
2022/09/26 10:55:46;;;;;;;6.60;2.63;;;;;;;;;;5054117;28;20204;-47
2022/09/26 10:58:16;;;;;;;3.73;2.80;;;;;;;;;;5055111;28;20266;-47
2022/09/26 11:00:43;;;;;;;4.77;2.50;;;;;;;;;;5054881;28;20227;-47
2022/09/26 11:03:10;;;;;;;3.87;2.47;;;;;;;;;;5055176;28;20219;-47
2022/09/26 11:05:56;;;;;;;3.43;2.10;;;;;;;;;;5054949;28;20246;-47
2022/09/26 11:08:24;;;;;;;2.90;2.47;;;;;;;;;;5054902;28;20248;-47
2022/09/26 11:10:51;;;;;;;6.40;2.73;;;;;;;;;;5052521;28;20199;-47
2022/09/26 11:13:18;;;;;;;6.70;2.67;;;;;;;;;;5052650;28;20196;-47
2022/09/26 11:15:52;;;;;;;4.37;3.07;;;;;;;;;;5052419;28;20196;-47
2022/09/26 11:18:20;;;;;;;5.77;3.07;;;;;;;;;;5054396;28;20214;-47
2022/09/26 11:20:49;;;;;;;5.70;2.93;;;;;;;;;;5053915;28;20200;-47
2022/09/26 11:23:23;;;;;;;5.03;3.30;;;;;;;;;;5054154;28;20203;-47
2022/09/26 11:25:55;;;;;;;3.97;3.30;;;;;;;;;;5053981;28;20232;-47
2022/09/26 11:28:24;;;;;;;6.20;3.00;;;;;;;;;;5054264;28;20208;-47
2022/09/26 11:30:52;;;;;;;6.67;3.10;;;;;;;;;;5053556;28;20294;-47
2022/09/26 11:33:18;;;;;;;5.23;2.97;;;;;;;;;;5054063;28;20686;-47
2022/09/26 11:35:51;;;;;;;4.23;3.07;;;;;;;;;;5054063;28;20291;-47
2022/09/26 11:38:27;;;;;;;4.93;3.30;;;;;;;;;;5054362;28;20251;-47
2022/09/26 11:41:01;;;;;;;3.53;3.03;;;;;;;;;;5054024;28;20208;-47
2022/09/26 11:43:43;;;;;;;3.97;3.27;;;;;;;;;;5054121;28;20263;-47
2022/09/26 11:46:15;;;;;;;4.03;3.43;;;;;;;;;;5053776;28;20312;-47
2022/09/26 11:48:48;;;;;;;3.93;3.10;;;;;;;;;;5053168;28;20200;-47
2022/09/26 11:51:18;;;;;;;3.33;2.87;;;;;;;;;;5053815;28;20689;-47
2022/09/26 11:53:52;;;;;;;3.57;3.00;;;;;;;;;;5053829;28;20184;-47
2022/09/26 11:56:31;;;;;;;4.47;3.17;;;;;;;;;;5053076;28;20729;-47
2022/09/26 11:59:02;;;;;;;6.17;3.07;;;;;;;;;;5053483;28;20200;-47
2022/09/26 12:01:34;;;;;;;3.30;2.50;;;;;;;;;;5054070;28;20214;-47
2022/09/26 12:04:06;;;;;;;3.20;2.80;;;;;;;;;;5052969;28;20204;-47
2022/09/26 12:06:35;;;;;;;4.13;2.77;;;;;;;;;;5053588;28;20223;-47
2022/09/26 12:09:07;;;;;;;6.30;4.23;;;;;;;;;;5053156;28;20273;-47
2022/09/26 12:11:39;;;;;;;6.10;4.17;;;;;;;;;;5053256;28;20638;-47
2022/09/26 12:14:11;;;;;;;5.33;3.50;;;;;;;;;;5053398;28;20262;-47
2022/09/26 12:16:44;;;;;;;6.77;3.10;;;;;;;;;;5053464;28;20577;-46
2022/09/26 12:19:15;;;;;;;5.30;2.60;;;;;;;;;;5053430;28;20204;-46
2022/09/26 12:24:38;;;;;;;3.83;2.37;;;;;;;;;;5053391;28;20238;-46
2022/09/26 12:27:08;;;;;;;3.67;2.27;;;;;;;;;;5053273;28;20196;-46
2022/09/26 12:29:37;;;;;;;3.20;2.10;;;;;;;;;;5053356;28;20208;-47
2022/09/26 12:32:11;;;;;;;2.83;2.00;;;;;;;;;;5052490;28;20236;-47
2022/09/26 12:34:43;;;;;;;3.00;2.23;;;;;;;;;;5052909;28;20195;-46
2022/09/26 12:37:19;;;;;;;2.30;2.00;;;;;;;;;;5051340;28;20204;-48
2022/09/26 12:39:56;;;;;;;2.97;2.10;;;;;;;;;;5049712;28;20681;-47
2022/09/26 12:42:35;;;;;;;2.43;2.10;;;;;;;;;;5052782;28;20195;-47
2022/09/26 12:45:16;;;;;;;2.73;1.80;;;;;;;;;;5052298;28;20588;-48
2022/09/26 12:47:56;;;;;;;3.70;2.17;;;;;;;;;;5047819;28;20200;-47
2022/09/26 12:50:29;;;;;;;2.30;2.10;;;;;;;;;;5052951;28;20254;-47
2022/09/26 12:53:09;;;;;;;3.73;2.13;;;;;;;;;;5052265;28;20243;-47
2022/09/26 12:55:37;;;;;;;4.80;2.10;;;;;;;;;;5053219;28;20196;-47
2022/09/26 12:58:10;;;;;;;3.30;2.07;;;;;;;;;;5052422;28;20259;-47
2022/09/26 13:00:39;;;;;;;2.53;2.00;;;;;;;;;;5052608;28;20211;-47
2022/09/26 13:03:35;;;;;;;4.23;2.43;;;;;;;;;;5052612;28;20220;-47
2022/09/26 13:06:16;;;;;;;2.20;2.00;;;;;;;;;;5052535;28;20224;-47
2022/09/26 13:08:46;;;;;;;2.33;1.93;;;;;;;;;;5050121;28;20359;-46
2022/09/26 13:11:18;;;;;;;3.53;2.40;;;;;;;;;;5051191;28;20204;-47
2022/09/26 13:14:17;;;;;;;2.73;2.10;;;;;;;;;;5053225;28;20207;-47
2022/09/26 13:16:49;;;;;;;3.73;2.53;;;;;;;;;;5052231;28;20200;-46
2022/09/26 13:19:21;;;;;;;3.37;2.30;;;;;;;;;;5053063;28;20298;-47
2022/09/26 13:21:51;;;;;;;2.73;2.03;;;;;;;;;;5052745;28;20737;-47
2022/09/26 13:24:20;;;;;;;4.67;2.40;;;;;;;;;;5052678;28;20725;-46
2022/09/26 13:26:51;;;;;;;2.73;2.33;;;;;;;;;;5052791;28;20223;-46
2022/09/26 13:29:19;;;;;;;2.60;2.17;;;;;;;;;;5052814;28;20666;-46
2022/09/26 13:31:47;;;;;;;4.90;2.40;;;;;;;;;;5052414;28;20599;-47
2022/09/26 13:34:16;;;;;;;4.67;2.07;;;;;;;;;;5052507;28;20659;-46
2022/09/26 13:36:43;;;;;;;2.83;2.43;;;;;;;;;;5052500;28;20283;-47
2022/09/26 13:39:12;;;;;;;4.23;2.20;;;;;;;;;;5052449;28;20196;-47
2022/09/26 13:41:42;;;;;;;5.33;2.53;;;;;;;;;;5052540;28;20204;-47
2022/09/26 13:44:14;;;;;;;3.00;2.23;;;;;;;;;;5052473;28;20204;-47
2022/09/26 13:46:51;;;;;;;2.93;2.53;;;;;;;;;;5048148;28;20196;-47
2022/09/26 13:49:26;;;;;;;2.80;2.27;;;;;;;;;;5051153;28;20196;-47
2022/09/26 13:52:03;;;;;;;2.10;1.90;;;;;;;;;;5050680;28;20295;-47
2022/09/26 13:54:40;;;;;;;2.63;2.43;;;;;;;;;;5049026;28;20188;-47
2022/09/26 13:57:23;;;;;;;2.90;2.20;;;;;;;;;;5050232;28;20200;-47
2022/09/26 13:59:50;;;;;;;3.53;2.57;;;;;;;;;;5048786;28;20192;-47
2022/09/26 14:02:17;;;;;;;4.03;2.20;;;;;;;;;;5048166;28;20654;-47
2022/09/26 14:04:45;;;;;;;2.63;2.43;;;;;;;;;;5049998;28;20227;-47
2022/09/26 14:10:11;;;;;;;3.03;2.43;;;;;;;;;;5051177;28;20766;-47
2022/09/26 14:12:51;;;;;;;3.33;2.30;;;;;;;;;;5051399;28;20195;-47
2022/09/26 14:15:19;;;;;;;3.77;2.57;;;;;;;;;;5048378;28;20643;-45
2022/09/26 14:18:00;;;;;;;5.20;2.60;;;;;;;;;;5050885;28;20200;-47
2022/09/26 14:20:28;;;;;;;2.60;2.30;;;;;;;;;;5050433;28;20200;-46
2022/09/26 14:22:55;;;;;;;4.40;2.50;;;;;;;;;;5049797;28;20641;-46
2022/09/26 14:25:36;;;;;;;3.10;2.53;;;;;;;;;;5050322;28;20312;-46
2022/09/26 14:28:08;;;;;;;3.03;2.50;;;;;;;;;;5033309;28;20215;-46
2022/09/26 14:30:36;;;;;;;3.33;2.40;;;;;;;;;;5049986;28;20248;-45
2022/09/26 14:33:04;;;;;;;3.33;2.43;;;;;;;;;;5050358;28;20284;-47
2022/09/26 14:35:33;;;;;;;2.90;2.20;;;;;;;;;;5050956;28;20243;-46
2022/09/26 14:38:00;;;;;;;2.03;1.93;;;;;;;;;;5050209;28;20211;-46
2022/09/26 14:40:30;;;;;;;2.30;2.10;;;;;;;;;;5049846;28;20214;-46
2022/09/26 14:42:59;;;;;;;3.57;2.20;;;;;;;;;;5050197;28;20251;-46
2022/09/26 14:45:26;;;;;;;3.90;2.10;;;;;;;;;;5050628;28;20220;-46
2022/09/26 14:47:56;;;;;;;2.73;2.13;;;;;;;;;;5050142;28;20287;-48
2022/09/26 14:50:24;;;;;;;3.03;2.03;;;;;;;;;;5050447;28;20251;-47
2022/09/26 14:52:53;;;;;;;2.73;2.10;;;;;;;;;;5050156;28;20295;-47
2022/09/26 14:55:19;;;;;;;2.20;2.00;;;;;;;;;;5050689;28;20267;-47
2022/09/26 14:57:47;;;;;;;4.07;2.10;;;;;;;;;;5050619;28;20200;-47
2022/09/26 15:00:31;;;;;;;2.13;1.80;;;;;;;;;;5050350;28;20674;-47
2022/09/26 15:02:57;;;;;;;3.53;2.10;;;;;;;;;;5049950;28;20204;-47
2022/09/26 15:05:24;;;;;;;3.30;2.13;;;;;;;;;;5050088;28;20228;-47
2022/09/26 15:07:52;;;;;;;2.63;2.10;;;;;;;;;;5049911;28;20274;-47
2022/09/26 15:10:23;;;;;;;2.90;2.17;;;;;;;;;;5049903;28;20204;-47